createdAt,value
2023-05-02T00:03:04.069Z,94016.00
2023-05-02T00:07:08.836Z,94002.00
2023-05-02T00:11:12.435Z,94012.00
2023-05-02T00:15:15.882Z,94011.00
2023-05-02T00:19:20.937Z,94007.00
2023-05-02T00:23:24.455Z,94014.00
2023-05-02T00:27:27.915Z,94016.00
2023-05-02T00:31:31.496Z,94013.00
2023-05-02T00:35:36.661Z,94013.00
2023-05-02T00:39:40.565Z,94000.00
2023-05-02T00:43:45.242Z,94017.00
2023-05-02T00:47:48.755Z,94007.00
2023-05-02T00:51:55.067Z,94007.00
2023-05-02T00:55:59.585Z,94014.00
2023-05-02T01:00:05.054Z,94023.00
2023-05-02T01:04:22.594Z,94018.00
2023-05-02T01:08:37.760Z,94027.00
2023-05-02T01:12:44.758Z,94027.00
2023-05-02T01:16:50.216Z,94035.00
2023-05-02T01:20:58.620Z,94032.00
2023-05-02T01:25:10.530Z,94036.00
2023-05-02T01:29:16.526Z,94040.00
2023-05-02T01:33:24.412Z,94046.00
2023-05-02T01:37:29.037Z,94046.00
2023-05-02T01:41:34.804Z,94043.00
2023-05-02T01:45:40.913Z,94047.00
2023-05-02T01:49:46.181Z,94052.00
2023-05-02T01:53:51.089Z,94063.00
2023-05-02T01:57:57.987Z,94074.00
2023-05-02T02:02:03.684Z,94072.00
2023-05-02T02:06:08.217Z,94072.00
2023-05-02T02:10:12.180Z,94068.00
2023-05-02T02:14:20.553Z,94071.00
2023-05-02T02:18:29.526Z,94075.00
2023-05-02T02:22:38.768Z,94069.00
2023-05-02T02:26:42.810Z,94076.00
2023-05-02T02:30:46.683Z,94072.00
2023-05-02T02:34:51.717Z,94082.00
2023-05-02T02:39:12.159Z,94078.00
2023-05-02T02:43:25.654Z,94082.00
2023-05-02T02:47:33.522Z,94098.00
2023-05-02T02:51:45.921Z,94092.00
2023-05-02T02:55:54.757Z,94091.00
2023-05-02T03:00:04.216Z,94092.00
2023-05-02T03:04:09.920Z,94105.00
2023-05-02T03:08:15.944Z,94106.00
2023-05-02T03:12:19.807Z,94095.00
2023-05-02T03:16:42.564Z,94109.00
2023-05-02T03:20:50.837Z,94108.00
2023-05-02T03:24:55.937Z,94111.00
2023-05-02T03:28:59.494Z,94104.00
2023-05-02T03:33:10.282Z,94109.00
2023-05-02T03:37:16.304Z,94109.00
2023-05-02T03:41:21.368Z,94114.00
2023-05-02T03:45:31.429Z,94115.00
2023-05-02T03:49:36.238Z,94108.00
2023-05-02T03:53:40.425Z,94113.00
2023-05-02T03:57:45.913Z,94121.00
2023-05-02T04:01:51.362Z,94115.00
2023-05-02T04:05:58.550Z,94135.00
2023-05-02T04:10:02.577Z,94130.00
2023-05-02T04:14:11.233Z,94128.00
2023-05-02T04:18:16.023Z,94136.00
2023-05-02T04:22:19.558Z,94141.00
2023-05-02T04:26:28.614Z,94144.00
2023-05-02T04:30:39.128Z,94149.00
2023-05-02T04:34:47.028Z,94156.00
2023-05-02T04:38:53.800Z,94161.00
2023-05-02T04:42:57.294Z,94156.00
2023-05-02T04:47:07.540Z,94168.00
2023-05-02T04:51:11.446Z,94169.00
2023-05-02T04:55:15.082Z,94167.00
2023-05-02T04:59:21.558Z,94162.00
2023-05-02T05:03:28.401Z,94169.00
2023-05-02T05:07:32.466Z,94176.00
2023-05-02T05:11:36.164Z,94171.00
2023-05-02T05:15:40.393Z,94176.00
2023-05-02T05:19:45.638Z,94189.00
2023-05-02T05:23:49.298Z,94187.00
2023-05-02T05:28:01.080Z,94188.00
2023-05-02T05:32:07.234Z,94190.00
2023-05-02T05:36:14.617Z,94197.00
2023-05-02T05:40:19.317Z,94200.00
2023-05-02T05:44:27.417Z,94199.00
2023-05-02T05:48:31.566Z,94206.00
2023-05-02T05:52:38.706Z,94205.00
2023-05-02T05:56:44.412Z,94215.00
2023-05-02T06:00:51.684Z,94205.00
2023-05-02T06:04:55.558Z,94217.00
2023-05-02T06:09:03.023Z,94224.00
2023-05-02T06:13:07.501Z,94227.00
2023-05-02T06:17:17.532Z,94227.00
2023-05-02T06:21:21.099Z,94236.00
2023-05-02T06:25:26.216Z,94227.00
2023-05-02T06:29:29.722Z,94234.00
2023-05-02T06:33:34.347Z,94232.00
2023-05-02T06:37:37.842Z,94239.00
2023-05-02T06:41:42.793Z,94235.00
2023-05-02T06:45:54.923Z,94245.00
2023-05-02T06:49:58.855Z,94258.00
2023-05-02T06:54:02.511Z,94252.00
2023-05-02T06:58:09.623Z,94262.00
2023-05-02T07:02:13.046Z,94253.00
2023-05-02T07:06:16.812Z,94276.00
2023-05-02T07:10:20.248Z,94271.00
2023-05-02T07:14:25.141Z,94283.00
2023-05-02T07:18:28.817Z,94266.00
2023-05-02T07:22:32.205Z,94276.00
2023-05-02T07:26:35.675Z,94281.00
2023-05-02T07:30:40.661Z,94278.00
2023-05-02T07:34:44.129Z,94286.00
2023-05-02T07:38:47.635Z,94294.00
2023-05-02T07:42:51.984Z,94293.00
2023-05-02T07:46:57.107Z,94297.00
2023-05-02T07:51:07.696Z,94301.00
2023-05-02T07:55:12.083Z,94311.00
2023-05-02T07:59:15.684Z,94313.00
2023-05-02T08:03:20.719Z,94307.00
2023-05-02T08:07:26.468Z,94309.00
2023-05-02T08:11:30.138Z,94324.00
2023-05-02T08:15:33.796Z,94325.00
2023-05-02T08:19:39.913Z,94316.00
2023-05-02T08:23:43.661Z,94333.00
2023-05-02T08:27:47.444Z,94330.00
2023-05-02T08:31:50.820Z,94338.00
2023-05-02T08:35:55.882Z,94338.00
2023-05-02T08:40:02.109Z,94331.00
2023-05-02T08:44:08.236Z,94340.00
2023-05-02T08:48:17.100Z,94337.00
2023-05-02T08:52:23.339Z,94340.00
2023-05-02T08:56:27.917Z,94350.00
2023-05-02T09:00:31.686Z,94351.00
2023-05-02T09:04:37.086Z,94352.00
2023-05-02T09:08:43.969Z,94345.00
2023-05-02T09:12:47.441Z,94346.00
2023-05-02T09:16:51.560Z,94347.00
2023-05-02T09:20:55.208Z,94349.00
2023-05-02T09:25:00.278Z,94347.00
2023-05-02T09:29:05.547Z,94349.00
2023-05-02T09:33:09.093Z,94361.00
2023-05-02T09:37:13.698Z,94351.00
2023-05-02T09:41:20.092Z,94345.00
2023-05-02T09:45:25.067Z,94352.00
2023-05-02T09:49:42.316Z,94358.00
2023-05-02T09:53:49.455Z,94355.00
2023-05-02T09:57:54.201Z,94360.00
2023-05-02T10:02:00.899Z,94367.00
2023-05-02T10:06:05.788Z,94361.00
2023-05-02T10:10:16.125Z,94372.00
2023-05-02T10:14:22.669Z,94379.00
2023-05-02T10:18:35.065Z,94379.00
2023-05-02T10:22:38.632Z,94373.00
2023-05-02T10:26:42.488Z,94374.00
2023-05-02T10:30:47.833Z,94377.00
2023-05-02T10:34:53.985Z,94380.00
2023-05-02T10:38:57.378Z,94384.00
2023-05-02T10:43:01.121Z,94384.00
2023-05-02T10:47:23.170Z,94380.00
2023-05-02T10:51:29.993Z,94381.00
2023-05-02T10:55:33.551Z,94388.00
2023-05-02T11:00:32.624Z,94393.00
2023-05-02T11:05:05.224Z,94392.00
2023-05-02T11:09:48.277Z,94399.00
2023-05-02T11:13:51.921Z,94397.00
2023-05-02T11:18:03.663Z,94394.00
2023-05-02T11:22:35.301Z,94401.00
2023-05-02T11:26:38.762Z,94396.00
2023-05-02T11:30:49.053Z,94402.00
2023-05-02T11:34:53.316Z,94407.00
2023-05-02T11:39:06.589Z,94403.00
2023-05-02T11:43:31.978Z,94398.00
2023-05-02T11:47:36.029Z,94412.00
2023-05-02T11:51:39.644Z,94412.00
2023-05-02T11:55:49.170Z,94408.00
2023-05-02T11:59:53.622Z,94418.00
2023-05-02T12:04:19.008Z,94416.00
2023-05-02T12:08:24.329Z,94421.00
2023-05-02T12:12:29.570Z,94421.00
2023-05-02T12:16:33.498Z,94417.00
2023-05-02T12:20:37.333Z,94422.00
2023-05-02T12:24:43.624Z,94423.00
2023-05-02T12:33:13.233Z,94423.00
2023-05-02T12:37:24.449Z,94424.00
2023-05-02T12:41:33.828Z,94432.00
2023-05-02T12:45:38.879Z,94435.00
2023-05-02T12:49:53.630Z,94422.00
2023-05-02T12:53:57.070Z,94425.00
2023-05-02T12:58:02.503Z,94432.00
2023-05-02T13:02:07.306Z,94438.00
2023-05-02T13:06:12.332Z,94429.00
2023-05-02T13:10:18.178Z,94435.00
2023-05-02T13:14:21.814Z,94428.00
2023-05-02T13:18:28.615Z,94436.00
2023-05-02T13:22:32.146Z,94425.00
2023-05-02T13:26:36.646Z,94427.00
2023-05-02T13:30:40.222Z,94429.00
2023-05-02T13:34:45.303Z,94427.00
2023-05-02T13:38:48.860Z,94433.00
2023-05-02T13:42:52.330Z,94428.00
2023-05-02T13:46:55.790Z,94429.00
2023-05-02T13:51:00.619Z,94429.00
2023-05-02T13:55:04.027Z,94424.00
2023-05-02T13:59:11.058Z,94439.00
2023-05-02T14:03:14.849Z,94434.00
2023-05-02T14:07:19.789Z,94443.00
2023-05-02T14:11:23.172Z,94441.00
2023-05-02T14:15:27.222Z,94452.00
2023-05-02T14:19:30.608Z,94445.00
2023-05-02T14:23:43.954Z,94446.00
2023-05-02T14:27:47.348Z,94450.00
2023-05-02T14:31:51.128Z,94454.00
2023-05-02T14:36:19.703Z,94457.00
2023-05-02T14:40:24.516Z,94455.00
2023-05-02T14:44:55.346Z,94463.00
2023-05-02T14:48:59.913Z,94459.00
2023-05-02T14:53:03.440Z,94459.00
2023-05-02T14:57:09.465Z,94470.00
2023-05-02T15:01:21.803Z,94481.00
2023-05-02T15:05:25.343Z,94482.00
2023-05-02T15:09:29.352Z,94492.00
2023-05-02T15:13:34.199Z,94495.00
2023-05-02T15:17:37.609Z,94498.00
2023-05-02T15:22:00.410Z,94499.00
2023-05-02T15:26:04.023Z,94506.00
2023-05-02T15:30:10.405Z,94504.00
2023-05-02T15:34:38.556Z,94499.00
2023-05-02T15:38:43.018Z,94509.00
2023-05-02T15:42:46.525Z,94503.00
2023-05-02T15:47:05.303Z,94508.00
2023-05-02T15:51:09.372Z,94509.00
2023-05-02T15:55:13.218Z,94503.00
2023-05-02T15:59:41.547Z,94503.00
2023-05-02T16:03:47.385Z,94508.00
2023-05-02T16:07:54.171Z,94505.00
2023-05-02T16:12:04.021Z,94515.00
2023-05-02T16:16:07.962Z,94507.00
2023-05-02T16:20:13.590Z,94513.00
2023-05-02T16:24:42.970Z,94519.00
2023-05-02T16:28:46.471Z,94513.00
2023-05-02T16:32:50.062Z,94526.00
2023-05-02T16:37:02.531Z,94514.00
2023-05-02T16:41:08.073Z,94519.00
2023-05-02T16:45:11.825Z,94521.00
2023-05-02T16:49:15.485Z,94512.00
2023-05-02T16:53:20.398Z,94516.00
2023-05-02T16:57:24.056Z,94524.00
2023-05-02T17:01:27.537Z,94517.00
2023-05-02T17:05:31.965Z,94522.00
2023-05-02T17:09:37.207Z,94527.00
2023-05-02T17:13:40.681Z,94523.00
2023-05-02T17:17:44.533Z,94526.00
2023-05-02T17:21:54.640Z,94531.00
2023-05-02T17:25:59.410Z,94531.00
2023-05-02T17:30:03.249Z,94533.00
2023-05-02T17:34:16.883Z,94541.00
2023-05-02T17:38:20.596Z,94547.00
2023-05-02T17:42:26.424Z,94552.00
2023-05-02T17:46:30.818Z,94547.00
2023-05-02T17:50:38.374Z,94544.00
2023-05-02T17:54:46.542Z,94551.00
2023-05-02T17:58:52.013Z,94546.00
2023-05-02T18:02:55.588Z,94555.00
2023-05-02T18:06:58.985Z,94560.00
2023-05-02T18:11:03.818Z,94568.00
2023-05-02T18:15:10.710Z,94569.00
2023-05-02T18:19:14.137Z,94572.00
2023-05-02T18:23:29.857Z,94571.00
2023-05-02T18:27:37.195Z,94576.00
2023-05-02T18:31:43.346Z,94581.00
2023-05-02T18:35:49.470Z,94584.00
2023-05-02T18:39:52.907Z,94585.00
2023-05-02T18:43:58.066Z,94595.00
2023-05-02T18:48:04.582Z,94595.00
2023-05-02T18:52:08.037Z,94601.00
2023-05-02T18:56:15.386Z,94625.00
2023-05-02T19:00:20.474Z,94626.00
2023-05-02T19:04:36.727Z,94635.00
2023-05-02T19:08:40.447Z,94641.00
2023-05-02T19:12:48.074Z,94634.00
2023-05-02T19:16:51.638Z,94644.00
2023-05-02T19:21:00.924Z,94648.00
2023-05-02T19:25:04.640Z,94653.00
2023-05-02T19:29:08.085Z,94656.00
2023-05-02T19:33:12.731Z,94663.00
2023-05-02T19:37:17.697Z,94663.00
2023-05-02T19:41:22.224Z,94658.00
2023-05-02T19:45:26.995Z,94668.00
2023-05-02T19:49:30.375Z,94669.00
2023-05-02T19:53:36.186Z,94668.00
2023-05-02T19:57:44.787Z,94668.00
2023-05-02T20:01:48.322Z,94671.00
2023-05-02T20:05:55.576Z,94670.00
2023-05-02T20:10:00.604Z,94672.00
2023-05-02T20:14:31.971Z,94670.00
2023-05-02T20:18:35.454Z,94675.00
2023-05-02T20:22:41.454Z,94675.00
2023-05-02T20:26:46.221Z,94682.00
2023-05-02T20:30:49.616Z,94663.00
2023-05-02T20:34:53.140Z,94670.00
2023-05-02T20:38:57.911Z,94664.00
2023-05-02T20:43:06.695Z,94661.00
2023-05-02T20:47:10.126Z,94671.00
2023-05-02T20:51:14.826Z,94674.00
2023-05-02T20:55:18.818Z,94676.00
2023-05-02T20:59:25.560Z,94671.00
2023-05-02T21:03:29.337Z,94678.00
2023-05-02T21:07:33.025Z,94685.00
2023-05-02T21:11:37.689Z,94678.00
2023-05-02T21:15:42.564Z,94681.00
2023-05-02T21:19:46.105Z,94685.00
2023-05-02T21:23:49.585Z,94689.00
2023-05-02T21:27:53.847Z,94692.00
2023-05-02T21:31:58.758Z,94696.00
2023-05-02T21:36:02.658Z,94699.00
2023-05-02T21:40:07.431Z,94703.00
2023-05-02T21:44:13.989Z,94702.00
2023-05-02T21:48:18.852Z,94697.00
2023-05-02T21:52:23.359Z,94700.00
2023-05-02T21:56:26.905Z,94709.00
2023-05-02T22:00:32.253Z,94705.00
2023-05-02T22:04:37.140Z,94719.00
2023-05-02T22:09:10.659Z,94717.00
2023-05-02T22:13:16.062Z,94718.00
2023-05-02T22:17:19.720Z,94721.00
2023-05-02T22:21:25.130Z,94712.00
2023-05-02T22:25:29.193Z,94719.00
2023-05-02T22:29:32.543Z,94717.00
2023-05-02T22:33:36.135Z,94718.00
2023-05-02T22:37:40.868Z,94725.00
2023-05-02T22:41:44.443Z,94718.00
2023-05-02T22:45:51.423Z,94725.00
2023-05-02T22:49:56.959Z,94723.00
2023-05-02T22:54:02.004Z,94717.00
2023-05-02T22:58:07.733Z,94724.00
2023-05-02T23:02:12.192Z,94712.00
2023-05-02T23:06:16.811Z,94723.00
2023-05-02T23:10:21.633Z,94720.00
2023-05-02T23:14:25.031Z,94720.00
2023-05-02T23:18:32.511Z,94719.00
2023-05-02T23:22:37.442Z,94719.00
2023-05-02T23:26:42.638Z,94711.00
2023-05-02T23:30:46.338Z,94705.00
2023-05-02T23:34:49.758Z,94695.00
2023-05-02T23:38:53.242Z,94715.00
2023-05-02T23:42:58.098Z,94704.00
2023-05-02T23:47:05.035Z,94708.00
2023-05-02T23:51:08.408Z,94699.00
2023-05-02T23:55:38.641Z,94709.00
2023-05-02T23:59:43.516Z,94706.00
